sensor_id;sensor_type;location;lat;lon;timestamp;P1;durP1;ratioP1;P2;durP2;ratioP2
32152;SDS011;18656;50.580;11.392;2023-02-01T00:01:32;7.88;;;2.33;;
32152;SDS011;18656;50.580;11.392;2023-02-01T00:03:59;6.13;;;2.03;;
32152;SDS011;18656;50.580;11.392;2023-02-01T00:06:26;3.63;;;2.00;;
32152;SDS011;18656;50.580;11.392;2023-02-01T00:08:54;5.07;;;2.35;;
32152;SDS011;18656;50.580;11.392;2023-02-01T00:11:21;7.10;;;2.28;;
32152;SDS011;18656;50.580;11.392;2023-02-01T00:13:49;6.72;;;1.80;;
32152;SDS011;18656;50.580;11.392;2023-02-01T00:16:17;5.88;;;2.10;;
32152;SDS011;18656;50.580;11.392;2023-02-01T00:18:45;9.45;;;2.58;;
32152;SDS011;18656;50.580;11.392;2023-02-01T00:21:13;9.30;;;1.90;;
32152;SDS011;18656;50.580;11.392;2023-02-01T00:23:41;5.72;;;1.90;;
32152;SDS011;18656;50.580;11.392;2023-02-01T00:26:16;5.63;;;1.95;;
32152;SDS011;18656;50.580;11.392;2023-02-01T00:28:44;8.73;;;2.47;;
32152;SDS011;18656;50.580;11.392;2023-02-01T00:31:13;6.32;;;2.45;;
32152;SDS011;18656;50.580;11.392;2023-02-01T00:33:41;4.60;;;2.40;;
32152;SDS011;18656;50.580;11.392;2023-02-01T00:36:08;7.15;;;2.10;;
32152;SDS011;18656;50.580;11.392;2023-02-01T00:38:36;10.00;;;2.42;;
32152;SDS011;18656;50.580;11.392;2023-02-01T00:41:06;8.13;;;2.65;;
32152;SDS011;18656;50.580;11.392;2023-02-01T00:43:37;8.30;;;2.67;;
32152;SDS011;18656;50.580;11.392;2023-02-01T00:46:04;14.95;;;3.25;;
32152;SDS011;18656;50.580;11.392;2023-02-01T00:48:31;3.50;;;2.35;;
32152;SDS011;18656;50.580;11.392;2023-02-01T00:50:59;5.90;;;2.47;;
32152;SDS011;18656;50.580;11.392;2023-02-01T00:53:27;8.77;;;2.35;;
32152;SDS011;18656;50.580;11.392;2023-02-01T00:55:54;4.13;;;2.80;;
32152;SDS011;18656;50.580;11.392;2023-02-01T00:58:22;8.88;;;2.55;;
32152;SDS011;18656;50.580;11.392;2023-02-01T01:01:05;5.97;;;2.55;;
32152;SDS011;18656;50.580;11.392;2023-02-01T01:03:33;8.55;;;2.88;;
32152;SDS011;18656;50.580;11.392;2023-02-01T01:06:01;6.28;;;2.55;;
32152;SDS011;18656;50.580;11.392;2023-02-01T01:08:29;9.45;;;2.50;;
32152;SDS011;18656;50.580;11.392;2023-02-01T01:10:57;6.65;;;2.53;;
32152;SDS011;18656;50.580;11.392;2023-02-01T01:13:24;4.80;;;2.28;;
32152;SDS011;18656;50.580;11.392;2023-02-01T01:15:51;7.32;;;2.70;;
32152;SDS011;18656;50.580;11.392;2023-02-01T01:18:18;5.20;;;2.22;;
32152;SDS011;18656;50.580;11.392;2023-02-01T01:20:47;5.68;;;2.10;;
32152;SDS011;18656;50.580;11.392;2023-02-01T01:23:14;5.95;;;2.67;;
32152;SDS011;18656;50.580;11.392;2023-02-01T01:25:42;9.27;;;2.78;;
32152;SDS011;18656;50.580;11.392;2023-02-01T01:28:09;5.63;;;3.10;;
32152;SDS011;18656;50.580;11.392;2023-02-01T01:30:37;9.43;;;3.15;;
32152;SDS011;18656;50.580;11.392;2023-02-01T01:33:04;9.85;;;2.65;;
32152;SDS011;18656;50.580;11.392;2023-02-01T01:35:32;9.50;;;3.05;;
32152;SDS011;18656;50.580;11.392;2023-02-01T01:37:59;13.00;;;2.63;;
32152;SDS011;18656;50.580;11.392;2023-02-01T01:40:27;7.63;;;2.50;;
32152;SDS011;18656;50.580;11.392;2023-02-01T01:42:55;6.28;;;2.25;;
32152;SDS011;18656;50.580;11.392;2023-02-01T01:47:56;9.52;;;2.47;;
32152;SDS011;18656;50.580;11.392;2023-02-01T01:50:27;6.72;;;2.25;;
32152;SDS011;18656;50.580;11.392;2023-02-01T01:52:55;7.95;;;2.45;;
32152;SDS011;18656;50.580;11.392;2023-02-01T01:55:24;7.25;;;2.22;;
32152;SDS011;18656;50.580;11.392;2023-02-01T01:58:02;9.82;;;2.50;;
32152;SDS011;18656;50.580;11.392;2023-02-01T02:00:32;9.88;;;2.58;;
32152;SDS011;18656;50.580;11.392;2023-02-01T02:03:05;10.98;;;2.40;;
32152;SDS011;18656;50.580;11.392;2023-02-01T02:05:34;10.15;;;2.72;;
32152;SDS011;18656;50.580;11.392;2023-02-01T02:08:01;9.90;;;2.85;;
32152;SDS011;18656;50.580;11.392;2023-02-01T02:10:29;6.45;;;2.30;;
32152;SDS011;18656;50.580;11.392;2023-02-01T02:13:16;6.13;;;2.05;;
32152;SDS011;18656;50.580;11.392;2023-02-01T02:15:55;7.50;;;2.70;;
32152;SDS011;18656;50.580;11.392;2023-02-01T02:18:30;10.50;;;2.28;;
32152;SDS011;18656;50.580;11.392;2023-02-01T02:21:08;12.17;;;2.27;;
32152;SDS011;18656;50.580;11.392;2023-02-01T02:33:58;5.15;;;2.00;;
32152;SDS011;18656;50.580;11.392;2023-02-01T02:36:33;9.00;;;2.80;;
32152;SDS011;18656;50.580;11.392;2023-02-01T02:39:20;13.80;;;2.45;;
32152;SDS011;18656;50.580;11.392;2023-02-01T02:42:02;7.38;;;1.90;;
32152;SDS011;18656;50.580;11.392;2023-02-01T02:44:54;9.73;;;2.17;;
32152;SDS011;18656;50.580;11.392;2023-02-01T02:48:10;8.73;;;2.70;;
32152;SDS011;18656;50.580;11.392;2023-02-01T02:50:41;8.90;;;2.42;;
32152;SDS011;18656;50.580;11.392;2023-02-01T02:53:37;8.60;;;2.33;;
32152;SDS011;18656;50.580;11.392;2023-02-01T02:56:24;11.85;;;2.33;;
32152;SDS011;18656;50.580;11.392;2023-02-01T02:59:11;10.40;;;2.58;;
32152;SDS011;18656;50.580;11.392;2023-02-01T03:01:58;10.48;;;3.22;;
32152;SDS011;18656;50.580;11.392;2023-02-01T03:04:44;10.00;;;2.88;;
32152;SDS011;18656;50.580;11.392;2023-02-01T03:09:59;11.38;;;2.95;;
32152;SDS011;18656;50.580;11.392;2023-02-01T03:12:31;13.60;;;3.28;;
32152;SDS011;18656;50.580;11.392;2023-02-01T03:15:19;10.15;;;3.92;;
32152;SDS011;18656;50.580;11.392;2023-02-01T03:17:48;9.85;;;3.40;;
32152;SDS011;18656;50.580;11.392;2023-02-01T03:20:17;14.35;;;4.20;;
32152;SDS011;18656;50.580;11.392;2023-02-01T03:22:46;11.25;;;3.65;;
32152;SDS011;18656;50.580;11.392;2023-02-01T03:25:18;10.27;;;3.58;;
32152;SDS011;18656;50.580;11.392;2023-02-01T03:27:51;12.63;;;4.18;;
32152;SDS011;18656;50.580;11.392;2023-02-01T03:30:28;14.82;;;4.55;;
32152;SDS011;18656;50.580;11.392;2023-02-01T03:32:58;14.32;;;4.00;;
32152;SDS011;18656;50.580;11.392;2023-02-01T03:38:30;13.05;;;4.13;;
32152;SDS011;18656;50.580;11.392;2023-02-01T03:43:29;14.40;;;4.28;;
32152;SDS011;18656;50.580;11.392;2023-02-01T03:46:02;13.57;;;3.85;;
32152;SDS011;18656;50.580;11.392;2023-02-01T03:48:30;20.00;;;4.63;;
32152;SDS011;18656;50.580;11.392;2023-02-01T03:50:59;16.08;;;4.13;;
32152;SDS011;18656;50.580;11.392;2023-02-01T03:53:28;8.23;;;3.83;;
32152;SDS011;18656;50.580;11.392;2023-02-01T03:55:56;13.50;;;4.40;;
32152;SDS011;18656;50.580;11.392;2023-02-01T03:58:23;16.23;;;4.57;;
32152;SDS011;18656;50.580;11.392;2023-02-01T04:00:52;12.65;;;3.78;;
32152;SDS011;18656;50.580;11.392;2023-02-01T04:03:20;9.40;;;3.63;;
32152;SDS011;18656;50.580;11.392;2023-02-01T04:05:48;14.48;;;4.25;;
32152;SDS011;18656;50.580;11.392;2023-02-01T04:08:17;14.02;;;3.85;;
32152;SDS011;18656;50.580;11.392;2023-02-01T04:10:44;7.88;;;3.65;;
32152;SDS011;18656;50.580;11.392;2023-02-01T04:13:12;10.95;;;3.42;;
32152;SDS011;18656;50.580;11.392;2023-02-01T04:15:39;11.18;;;3.95;;
32152;SDS011;18656;50.580;11.392;2023-02-01T04:18:06;11.73;;;4.00;;
32152;SDS011;18656;50.580;11.392;2023-02-01T04:20:33;12.73;;;4.38;;
32152;SDS011;18656;50.580;11.392;2023-02-01T04:23:03;12.07;;;4.32;;
32152;SDS011;18656;50.580;11.392;2023-02-01T04:25:30;14.23;;;3.47;;
32152;SDS011;18656;50.580;11.392;2023-02-01T04:27:57;10.43;;;3.90;;
32152;SDS011;18656;50.580;11.392;2023-02-01T04:30:25;11.00;;;3.33;;
32152;SDS011;18656;50.580;11.392;2023-02-01T04:32:52;9.65;;;3.50;;
32152;SDS011;18656;50.580;11.392;2023-02-01T04:35:19;9.90;;;3.20;;
32152;SDS011;18656;50.580;11.392;2023-02-01T04:37:48;9.68;;;3.22;;
32152;SDS011;18656;50.580;11.392;2023-02-01T04:40:15;10.15;;;3.05;;
32152;SDS011;18656;50.580;11.392;2023-02-01T04:42:42;8.57;;;2.28;;
32152;SDS011;18656;50.580;11.392;2023-02-01T04:45:09;9.38;;;2.97;;
32152;SDS011;18656;50.580;11.392;2023-02-01T04:47:37;10.45;;;2.65;;
32152;SDS011;18656;50.580;11.392;2023-02-01T04:50:04;6.07;;;2.63;;
32152;SDS011;18656;50.580;11.392;2023-02-01T04:52:32;10.13;;;3.35;;
32152;SDS011;18656;50.580;11.392;2023-02-01T04:54:59;10.93;;;3.00;;
32152;SDS011;18656;50.580;11.392;2023-02-01T04:57:28;11.32;;;2.90;;
32152;SDS011;18656;50.580;11.392;2023-02-01T04:59:55;11.82;;;3.28;;
32152;SDS011;18656;50.580;11.392;2023-02-01T05:02:22;10.18;;;3.05;;
32152;SDS011;18656;50.580;11.392;2023-02-01T05:04:49;13.65;;;3.22;;
32152;SDS011;18656;50.580;11.392;2023-02-01T05:07:17;11.55;;;2.80;;
32152;SDS011;18656;50.580;11.392;2023-02-01T05:09:44;8.23;;;2.85;;
32152;SDS011;18656;50.580;11.392;2023-02-01T05:12:11;12.10;;;2.50;;
32152;SDS011;18656;50.580;11.392;2023-02-01T05:14:57;7.97;;;2.75;;
32152;SDS011;18656;50.580;11.392;2023-02-01T05:17:24;10.48;;;2.55;;
32152;SDS011;18656;50.580;11.392;2023-02-01T05:19:52;10.15;;;2.92;;
32152;SDS011;18656;50.580;11.392;2023-02-01T05:22:19;10.07;;;3.30;;
32152;SDS011;18656;50.580;11.392;2023-02-01T05:24:46;10.98;;;3.28;;
32152;SDS011;18656;50.580;11.392;2023-02-01T05:27:13;11.93;;;3.28;;
32152;SDS011;18656;50.580;11.392;2023-02-01T05:29:40;10.02;;;3.13;;
32152;SDS011;18656;50.580;11.392;2023-02-01T05:32:09;10.07;;;3.30;;
32152;SDS011;18656;50.580;11.392;2023-02-01T05:34:47;9.15;;;3.35;;
32152;SDS011;18656;50.580;11.392;2023-02-01T05:37:14;9.60;;;2.65;;
32152;SDS011;18656;50.580;11.392;2023-02-01T05:39:41;14.52;;;3.08;;
32152;SDS011;18656;50.580;11.392;2023-02-01T05:42:09;5.47;;;2.40;;
32152;SDS011;18656;50.580;11.392;2023-02-01T05:44:36;11.43;;;3.08;;
32152;SDS011;18656;50.580;11.392;2023-02-01T05:47:04;11.38;;;3.22;;
32152;SDS011;18656;50.580;11.392;2023-02-01T05:49:31;8.60;;;2.70;;
32152;SDS011;18656;50.580;11.392;2023-02-01T05:51:58;9.23;;;2.80;;
32152;SDS011;18656;50.580;11.392;2023-02-01T05:54:26;16.25;;;2.70;;
32152;SDS011;18656;50.580;11.392;2023-02-01T05:56:53;10.65;;;2.88;;
32152;SDS011;18656;50.580;11.392;2023-02-01T05:59:20;13.73;;;3.05;;
32152;SDS011;18656;50.580;11.392;2023-02-01T06:01:48;8.85;;;2.20;;
32152;SDS011;18656;50.580;11.392;2023-02-01T06:04:15;6.70;;;2.70;;
32152;SDS011;18656;50.580;11.392;2023-02-01T06:06:42;9.65;;;2.47;;
32152;SDS011;18656;50.580;11.392;2023-02-01T06:09:09;9.35;;;2.85;;
32152;SDS011;18656;50.580;11.392;2023-02-01T06:11:36;8.75;;;2.30;;
32152;SDS011;18656;50.580;11.392;2023-02-01T06:14:03;7.05;;;2.40;;
32152;SDS011;18656;50.580;11.392;2023-02-01T06:16:34;5.22;;;2.38;;
32152;SDS011;18656;50.580;11.392;2023-02-01T06:19:01;7.22;;;2.15;;
32152;SDS011;18656;50.580;11.392;2023-02-01T06:21:28;15.45;;;4.10;;
32152;SDS011;18656;50.580;11.392;2023-02-01T06:23:55;11.05;;;2.78;;
32152;SDS011;18656;50.580;11.392;2023-02-01T06:26:23;13.25;;;2.60;;
32152;SDS011;18656;50.580;11.392;2023-02-01T06:28:51;10.88;;;2.05;;
32152;SDS011;18656;50.580;11.392;2023-02-01T06:31:19;8.95;;;2.05;;
32152;SDS011;18656;50.580;11.392;2023-02-01T06:33:46;15.18;;;5.90;;
32152;SDS011;18656;50.580;11.392;2023-02-01T06:36:14;10.57;;;3.72;;
32152;SDS011;18656;50.580;11.392;2023-02-01T06:38:42;12.52;;;2.35;;
32152;SDS011;18656;50.580;11.392;2023-02-01T06:41:09;5.95;;;1.90;;
32152;SDS011;18656;50.580;11.392;2023-02-01T06:43:37;9.45;;;2.72;;
32152;SDS011;18656;50.580;11.392;2023-02-01T06:46:05;9.52;;;2.20;;
32152;SDS011;18656;50.580;11.392;2023-02-01T06:48:33;9.57;;;2.15;;
32152;SDS011;18656;50.580;11.392;2023-02-01T06:51:00;9.65;;;2.42;;
32152;SDS011;18656;50.580;11.392;2023-02-01T06:53:30;9.23;;;2.88;;
32152;SDS011;18656;50.580;11.392;2023-02-01T06:55:59;14.15;;;2.55;;
32152;SDS011;18656;50.580;11.392;2023-02-01T06:58:30;11.38;;;2.65;;
32152;SDS011;18656;50.580;11.392;2023-02-01T07:00:58;11.25;;;2.38;;
32152;SDS011;18656;50.580;11.392;2023-02-01T07:03:25;12.35;;;2.17;;
32152;SDS011;18656;50.580;11.392;2023-02-01T07:05:56;8.82;;;2.40;;
32152;SDS011;18656;50.580;11.392;2023-02-01T07:08:27;6.82;;;1.98;;
32152;SDS011;18656;50.580;11.392;2023-02-01T07:10:55;9.70;;;2.58;;
32152;SDS011;18656;50.580;11.392;2023-02-01T07:13:22;16.58;;;3.33;;
32152;SDS011;18656;50.580;11.392;2023-02-01T07:15:49;6.00;;;2.25;;
32152;SDS011;18656;50.580;11.392;2023-02-01T07:18:17;12.40;;;2.50;;
32152;SDS011;18656;50.580;11.392;2023-02-01T07:20:46;9.02;;;2.00;;
32152;SDS011;18656;50.580;11.392;2023-02-01T07:23:19;6.97;;;2.30;;
32152;SDS011;18656;50.580;11.392;2023-02-01T07:25:47;10.27;;;3.58;;
32152;SDS011;18656;50.580;11.392;2023-02-01T07:28:14;27.25;;;2.70;;
32152;SDS011;18656;50.580;11.392;2023-02-01T07:30:41;14.85;;;2.20;;
32152;SDS011;18656;50.580;11.392;2023-02-01T07:33:09;11.57;;;2.80;;
32152;SDS011;18656;50.580;11.392;2023-02-01T07:35:36;11.32;;;3.22;;
32152;SDS011;18656;50.580;11.392;2023-02-01T07:38:03;14.23;;;3.20;;
32152;SDS011;18656;50.580;11.392;2023-02-01T07:40:30;8.02;;;2.45;;
32152;SDS011;18656;50.580;11.392;2023-02-01T07:42:57;4.82;;;1.70;;
32152;SDS011;18656;50.580;11.392;2023-02-01T07:45:26;8.55;;;2.55;;
32152;SDS011;18656;50.580;11.392;2023-02-01T07:47:53;11.10;;;4.55;;
32152;SDS011;18656;50.580;11.392;2023-02-01T07:50:20;9.85;;;2.97;;
32152;SDS011;18656;50.580;11.392;2023-02-01T07:52:48;10.98;;;4.78;;
32152;SDS011;18656;50.580;11.392;2023-02-01T07:55:15;8.70;;;2.05;;
32152;SDS011;18656;50.580;11.392;2023-02-01T07:57:42;12.00;;;2.55;;
32152;SDS011;18656;50.580;11.392;2023-02-01T08:00:10;6.85;;;2.10;;
32152;SDS011;18656;50.580;11.392;2023-02-01T08:02:59;10.95;;;2.00;;
32152;SDS011;18656;50.580;11.392;2023-02-01T08:05:27;6.90;;;1.98;;
32152;SDS011;18656;50.580;11.392;2023-02-01T08:07:54;8.15;;;1.80;;
32152;SDS011;18656;50.580;11.392;2023-02-01T08:10:21;11.00;;;2.80;;
32152;SDS011;18656;50.580;11.392;2023-02-01T08:12:49;5.32;;;1.52;;
32152;SDS011;18656;50.580;11.392;2023-02-01T08:15:18;8.43;;;2.33;;
32152;SDS011;18656;50.580;11.392;2023-02-01T08:17:46;6.13;;;1.40;;
32152;SDS011;18656;50.580;11.392;2023-02-01T08:20:13;6.80;;;2.20;;
32152;SDS011;18656;50.580;11.392;2023-02-01T08:22:41;9.68;;;2.30;;
32152;SDS011;18656;50.580;11.392;2023-02-01T08:25:09;7.70;;;1.90;;
32152;SDS011;18656;50.580;11.392;2023-02-01T08:27:37;11.85;;;2.20;;
32152;SDS011;18656;50.580;11.392;2023-02-01T08:30:05;12.35;;;2.17;;
32152;SDS011;18656;50.580;11.392;2023-02-01T08:32:33;7.75;;;2.20;;
32152;SDS011;18656;50.580;11.392;2023-02-01T08:35:00;6.47;;;1.80;;
32152;SDS011;18656;50.580;11.392;2023-02-01T08:37:28;8.18;;;2.10;;
32152;SDS011;18656;50.580;11.392;2023-02-01T08:39:55;9.30;;;2.30;;
32152;SDS011;18656;50.580;11.392;2023-02-01T08:42:22;6.68;;;1.80;;
32152;SDS011;18656;50.580;11.392;2023-02-01T08:45:08;9.43;;;2.25;;
32152;SDS011;18656;50.580;11.392;2023-02-01T08:47:35;8.32;;;2.45;;
32152;SDS011;18656;50.580;11.392;2023-02-01T08:50:03;7.57;;;1.83;;
32152;SDS011;18656;50.580;11.392;2023-02-01T08:52:30;9.50;;;2.30;;
32152;SDS011;18656;50.580;11.392;2023-02-01T08:54:57;8.20;;;1.90;;
32152;SDS011;18656;50.580;11.392;2023-02-01T08:57:24;12.82;;;2.42;;
32152;SDS011;18656;50.580;11.392;2023-02-01T08:59:52;8.77;;;1.88;;
32152;SDS011;18656;50.580;11.392;2023-02-01T09:02:19;7.75;;;1.83;;
32152;SDS011;18656;50.580;11.392;2023-02-01T09:04:46;5.53;;;1.90;;
32152;SDS011;18656;50.580;11.392;2023-02-01T09:07:13;7.93;;;1.73;;
32152;SDS011;18656;50.580;11.392;2023-02-01T09:09:41;12.18;;;3.00;;
32152;SDS011;18656;50.580;11.392;2023-02-01T09:12:08;10.40;;;4.50;;
32152;SDS011;18656;50.580;11.392;2023-02-01T09:14:35;11.63;;;2.70;;
32152;SDS011;18656;50.580;11.392;2023-02-01T09:17:03;11.70;;;5.72;;
32152;SDS011;18656;50.580;11.392;2023-02-01T09:19:31;8.50;;;3.00;;
32152;SDS011;18656;50.580;11.392;2023-02-01T09:21:58;8.00;;;3.80;;
32152;SDS011;18656;50.580;11.392;2023-02-01T09:24:26;7.53;;;2.40;;
32152;SDS011;18656;50.580;11.392;2023-02-01T09:26:53;11.02;;;1.95;;
32152;SDS011;18656;50.580;11.392;2023-02-01T09:29:21;8.07;;;2.88;;
32152;SDS011;18656;50.580;11.392;2023-02-01T09:31:48;8.77;;;2.55;;
32152;SDS011;18656;50.580;11.392;2023-02-01T09:34:28;4.90;;;1.38;;
32152;SDS011;18656;50.580;11.392;2023-02-01T09:36:56;8.15;;;2.05;;
32152;SDS011;18656;50.580;11.392;2023-02-01T09:39:23;6.75;;;1.85;;
32152;SDS011;18656;50.580;11.392;2023-02-01T09:46:57;8.45;;;2.35;;
32152;SDS011;18656;50.580;11.392;2023-02-01T09:49:30;6.82;;;1.88;;
32152;SDS011;18656;50.580;11.392;2023-02-01T09:51:59;10.05;;;5.25;;
32152;SDS011;18656;50.580;11.392;2023-02-01T09:54:29;7.53;;;2.33;;
32152;SDS011;18656;50.580;11.392;2023-02-01T10:01:57;8.30;;;2.10;;
32152;SDS011;18656;50.580;11.392;2023-02-01T10:04:25;9.18;;;2.17;;
32152;SDS011;18656;50.580;11.392;2023-02-01T10:06:58;8.57;;;2.20;;
32152;SDS011;18656;50.580;11.392;2023-02-01T10:25:35;8.57;;;1.88;;
32152;SDS011;18656;50.580;11.392;2023-02-01T10:28:04;7.55;;;1.42;;
32152;SDS011;18656;50.580;11.392;2023-02-01T10:30:34;18.65;;;1.77;;
32152;SDS011;18656;50.580;11.392;2023-02-01T10:33:12;5.53;;;1.67;;
32152;SDS011;18656;50.580;11.392;2023-02-01T10:35:41;7.63;;;1.90;;
32152;SDS011;18656;50.580;11.392;2023-02-01T10:38:23;5.72;;;1.42;;
32152;SDS011;18656;50.580;11.392;2023-02-01T10:40:52;5.07;;;1.50;;
32152;SDS011;18656;50.580;11.392;2023-02-01T10:43:20;3.67;;;1.35;;
32152;SDS011;18656;50.580;11.392;2023-02-01T10:45:47;8.52;;;1.83;;
32152;SDS011;18656;50.580;11.392;2023-02-01T10:48:14;6.35;;;1.95;;
32152;SDS011;18656;50.580;11.392;2023-02-01T10:50:55;8.13;;;2.10;;
32152;SDS011;18656;50.580;11.392;2023-02-01T10:53:57;10.50;;;1.60;;
32152;SDS011;18656;50.580;11.392;2023-02-01T10:56:21;3.90;;;1.77;;
32152;SDS011;18656;50.580;11.392;2023-02-01T10:58:48;6.10;;;1.73;;
32152;SDS011;18656;50.580;11.392;2023-02-01T11:01:19;6.05;;;1.75;;
32152;SDS011;18656;50.580;11.392;2023-02-01T11:04:00;6.47;;;2.40;;
32152;SDS011;18656;50.580;11.392;2023-02-01T11:06:32;10.68;;;2.63;;
32152;SDS011;18656;50.580;11.392;2023-02-01T11:09:01;8.45;;;1.73;;
32152;SDS011;18656;50.580;11.392;2023-02-01T11:14:16;7.78;;;2.17;;
32152;SDS011;18656;50.580;11.392;2023-02-01T11:17:01;9.13;;;1.50;;
32152;SDS011;18656;50.580;11.392;2023-02-01T11:21:56;8.15;;;1.88;;
32152;SDS011;18656;50.580;11.392;2023-02-01T11:24:25;3.50;;;1.75;;
32152;SDS011;18656;50.580;11.392;2023-02-01T11:26:56;7.88;;;2.25;;
32152;SDS011;18656;50.580;11.392;2023-02-01T11:29:25;7.18;;;1.60;;
32152;SDS011;18656;50.580;11.392;2023-02-01T11:31:56;5.85;;;1.92;;
32152;SDS011;18656;50.580;11.392;2023-02-01T11:34:25;9.07;;;1.73;;
32152;SDS011;18656;50.580;11.392;2023-02-01T11:36:54;5.47;;;1.50;;
32152;SDS011;18656;50.580;11.392;2023-02-01T11:39:26;4.70;;;1.40;;
32152;SDS011;18656;50.580;11.392;2023-02-01T11:41:57;5.40;;;1.38;;
32152;SDS011;18656;50.580;11.392;2023-02-01T11:46:55;6.05;;;1.38;;
32152;SDS011;18656;50.580;11.392;2023-02-01T12:05:25;4.72;;;1.45;;
32152;SDS011;18656;50.580;11.392;2023-02-01T12:08:01;6.05;;;1.63;;
32152;SDS011;18656;50.580;11.392;2023-02-01T12:10:37;5.97;;;1.55;;
32152;SDS011;18656;50.580;11.392;2023-02-01T12:26:40;7.82;;;1.80;;
32152;SDS011;18656;50.580;11.392;2023-02-01T12:37:09;4.65;;;1.40;;
32152;SDS011;18656;50.580;11.392;2023-02-01T12:39:43;5.38;;;1.65;;
32152;SDS011;18656;50.580;11.392;2023-02-01T12:42:22;4.43;;;1.73;;
32152;SDS011;18656;50.580;11.392;2023-02-01T12:47:51;8.05;;;1.75;;
32152;SDS011;18656;50.580;11.392;2023-02-01T12:55:49;6.70;;;1.35;;
32152;SDS011;18656;50.580;11.392;2023-02-01T13:01:17;7.93;;;2.05;;
32152;SDS011;18656;50.580;11.392;2023-02-01T13:04:02;10.63;;;2.53;;
32152;SDS011;18656;50.580;11.392;2023-02-01T13:06:37;5.78;;;1.95;;
32152;SDS011;18656;50.580;11.392;2023-02-01T13:09:22;6.95;;;1.95;;
32152;SDS011;18656;50.580;11.392;2023-02-01T13:11:53;7.30;;;1.85;;
32152;SDS011;18656;50.580;11.392;2023-02-01T13:14:25;6.45;;;2.03;;
32152;SDS011;18656;50.580;11.392;2023-02-01T13:17:02;10.18;;;2.50;;
32152;SDS011;18656;50.580;11.392;2023-02-01T13:19:45;3.97;;;1.58;;
32152;SDS011;18656;50.580;11.392;2023-02-01T13:24:54;9.30;;;2.15;;
32152;SDS011;18656;50.580;11.392;2023-02-01T13:27:22;10.27;;;2.53;;
32152;SDS011;18656;50.580;11.392;2023-02-01T13:32:46;4.18;;;1.65;;
32152;SDS011;18656;50.580;11.392;2023-02-01T13:38:18;11.48;;;2.88;;
32152;SDS011;18656;50.580;11.392;2023-02-01T13:40:51;10.88;;;2.15;;
32152;SDS011;18656;50.580;11.392;2023-02-01T13:43:24;6.75;;;2.17;;
32152;SDS011;18656;50.580;11.392;2023-02-01T13:45:54;7.03;;;2.05;;
32152;SDS011;18656;50.580;11.392;2023-02-01T13:48:29;7.43;;;1.80;;
32152;SDS011;18656;50.580;11.392;2023-02-01T13:50:57;5.38;;;1.55;;
32152;SDS011;18656;50.580;11.392;2023-02-01T13:53:27;7.97;;;2.53;;
32152;SDS011;18656;50.580;11.392;2023-02-01T13:55:57;8.57;;;2.60;;
32152;SDS011;18656;50.580;11.392;2023-02-01T13:58:32;6.85;;;2.63;;
32152;SDS011;18656;50.580;11.392;2023-02-01T14:03:47;9.55;;;2.42;;
32152;SDS011;18656;50.580;11.392;2023-02-01T14:06:16;7.07;;;1.98;;
32152;SDS011;18656;50.580;11.392;2023-02-01T14:08:44;9.20;;;1.80;;
32152;SDS011;18656;50.580;11.392;2023-02-01T14:19:21;10.43;;;2.25;;
32152;SDS011;18656;50.580;11.392;2023-02-01T14:21:49;7.95;;;1.98;;
32152;SDS011;18656;50.580;11.392;2023-02-01T14:24:25;4.75;;;1.63;;
32152;SDS011;18656;50.580;11.392;2023-02-01T14:26:53;14.15;;;2.20;;
32152;SDS011;18656;50.580;11.392;2023-02-01T14:29:24;8.27;;;2.00;;
32152;SDS011;18656;50.580;11.392;2023-02-01T14:34:40;8.82;;;1.98;;
32152;SDS011;18656;50.580;11.392;2023-02-01T14:45:45;12.07;;;2.38;;
32152;SDS011;18656;50.580;11.392;2023-02-01T14:47:43;5.75;;;1.73;;
32152;SDS011;18656;50.580;11.392;2023-02-01T14:58:06;7.88;;;1.52;;
32152;SDS011;18656;50.580;11.392;2023-02-01T15:00:33;9.23;;;1.80;;
32152;SDS011;18656;50.580;11.392;2023-02-01T15:05:50;6.07;;;1.98;;
32152;SDS011;18656;50.580;11.392;2023-02-01T15:08:24;6.00;;;1.50;;
32152;SDS011;18656;50.580;11.392;2023-02-01T15:10:52;6.63;;;2.00;;
32152;SDS011;18656;50.580;11.392;2023-02-01T15:13:21;10.00;;;2.00;;
32152;SDS011;18656;50.580;11.392;2023-02-01T15:18:35;9.93;;;2.00;;
32152;SDS011;18656;50.580;11.392;2023-02-01T15:21:03;10.25;;;1.83;;
32152;SDS011;18656;50.580;11.392;2023-02-01T15:23:51;7.82;;;1.65;;
32152;SDS011;18656;50.580;11.392;2023-02-01T15:26:36;6.78;;;1.90;;
32152;SDS011;18656;50.580;11.392;2023-02-01T15:29:03;6.65;;;1.48;;
32152;SDS011;18656;50.580;11.392;2023-02-01T15:31:52;7.25;;;2.45;;
32152;SDS011;18656;50.580;11.392;2023-02-01T15:34:19;5.85;;;1.92;;
32152;SDS011;18656;50.580;11.392;2023-02-01T15:36:46;5.82;;;2.13;;
32152;SDS011;18656;50.580;11.392;2023-02-01T15:39:27;6.45;;;1.55;;
32152;SDS011;18656;50.580;11.392;2023-02-01T15:41:58;9.07;;;1.73;;
32152;SDS011;18656;50.580;11.392;2023-02-01T15:44:41;12.10;;;2.25;;
32152;SDS011;18656;50.580;11.392;2023-02-01T15:47:16;6.90;;;1.57;;
32152;SDS011;18656;50.580;11.392;2023-02-01T15:49:45;8.23;;;1.70;;
32152;SDS011;18656;50.580;11.392;2023-02-01T15:52:21;8.10;;;1.63;;
32152;SDS011;18656;50.580;11.392;2023-02-01T15:54:50;7.70;;;1.70;;
32152;SDS011;18656;50.580;11.392;2023-02-01T15:57:26;7.07;;;1.58;;
32152;SDS011;18656;50.580;11.392;2023-02-01T15:59:57;3.38;;;1.30;;
32152;SDS011;18656;50.580;11.392;2023-02-01T16:02:41;5.97;;;1.33;;
32152;SDS011;18656;50.580;11.392;2023-02-01T16:05:28;7.20;;;1.90;;
32152;SDS011;18656;50.580;11.392;2023-02-01T16:07:57;4.55;;;1.55;;
32152;SDS011;18656;50.580;11.392;2023-02-01T16:10:30;3.17;;;1.70;;
32152;SDS011;18656;50.580;11.392;2023-02-01T16:12:57;4.40;;;1.27;;
32152;SDS011;18656;50.580;11.392;2023-02-01T16:15:26;4.78;;;1.90;;
32152;SDS011;18656;50.580;11.392;2023-02-01T16:17:55;6.57;;;1.48;;
32152;SDS011;18656;50.580;11.392;2023-02-01T16:20:23;5.22;;;1.55;;
32152;SDS011;18656;50.580;11.392;2023-02-01T16:22:50;6.10;;;1.63;;
32152;SDS011;18656;50.580;11.392;2023-02-01T16:25:17;7.35;;;1.33;;
32152;SDS011;18656;50.580;11.392;2023-02-01T16:27:44;7.38;;;2.25;;
32152;SDS011;18656;50.580;11.392;2023-02-01T16:30:12;6.97;;;1.55;;
32152;SDS011;18656;50.580;11.392;2023-02-01T16:32:39;6.78;;;1.58;;
32152;SDS011;18656;50.580;11.392;2023-02-01T16:35:18;9.93;;;1.65;;
32152;SDS011;18656;50.580;11.392;2023-02-01T16:37:47;5.10;;;1.50;;
32152;SDS011;18656;50.580;11.392;2023-02-01T16:40:15;8.98;;;2.03;;
32152;SDS011;18656;50.580;11.392;2023-02-01T16:42:42;5.03;;;1.92;;
32152;SDS011;18656;50.580;11.392;2023-02-01T16:45:10;9.70;;;1.90;;
32152;SDS011;18656;50.580;11.392;2023-02-01T16:47:37;7.47;;;1.58;;
32152;SDS011;18656;50.580;11.392;2023-02-01T16:50:05;7.10;;;1.33;;
32152;SDS011;18656;50.580;11.392;2023-02-01T16:52:48;5.68;;;1.45;;
32152;SDS011;18656;50.580;11.392;2023-02-01T16:55:16;7.03;;;1.83;;
32152;SDS011;18656;50.580;11.392;2023-02-01T16:57:44;7.20;;;2.13;;
32152;SDS011;18656;50.580;11.392;2023-02-01T17:00:12;6.45;;;2.25;;
32152;SDS011;18656;50.580;11.392;2023-02-01T17:02:50;5.70;;;1.23;;
32152;SDS011;18656;50.580;11.392;2023-02-01T17:05:17;5.28;;;1.73;;
32152;SDS011;18656;50.580;11.392;2023-02-01T17:07:44;4.25;;;1.83;;
32152;SDS011;18656;50.580;11.392;2023-02-01T17:10:17;4.72;;;1.63;;
32152;SDS011;18656;50.580;11.392;2023-02-01T17:12:57;4.72;;;1.70;;
32152;SDS011;18656;50.580;11.392;2023-02-01T17:15:26;4.45;;;1.50;;
32152;SDS011;18656;50.580;11.392;2023-02-01T17:17:55;5.28;;;1.40;;